Time;durP1;ratioP1;P1;durP2;ratioP2;P2;SDS_P1;SDS_P2;PMS_P1;PMS_P2;Temp;Humidity;BMP_temperature;BMP_pressure;BME280_temperature;BME280_humidity;BME280_pressure;Samples;Min_cycle;Max_cycle;Signal;HPM_P1;HPM_P2
2021/12/05 00:20:21;;;;;;;;;;;23.70;50.00;;;;;;1560218;76;1919;-68
2021/12/05 00:22:13;;;;;;;;;;;23.70;50.00;;;;;;1577963;73;1486;-67
2021/12/05 00:24:14;;;;;;;;;;;23.70;50.00;;;;;;1597905;73;1617;-68
2021/12/05 00:26:19;;;;;;;;;;;23.70;50.00;;;;;;1613034;72;1657;-67
2021/12/05 00:30:06;;;;;;;;;;;23.70;50.30;;;;;;1608898;72;656;-57
2021/12/05 00:32:20;;;;;;;;;;;23.70;50.10;;;;;;1583070;74;1609;-56
2021/12/05 00:44:35;;;;;;;;;;;23.70;50.10;;;;;;1555440;75;869;-58
2021/12/05 00:59:43;;;;;;;;;;;23.70;50.20;;;;;;1554849;75;855;-59
2021/12/05 01:06:37;;;;;;;;;;;23.70;50.40;;;;;;1552252;75;1123;-58
2021/12/05 01:12:36;;;;;;;;;;;23.80;50.30;;;;;;1561069;75;1647;-60
2021/12/05 01:14:31;;;;;;;;;;;23.70;50.30;;;;;;1563804;75;1633;-56
2021/12/05 01:16:28;;;;;;;;;;;23.80;50.40;;;;;;1554649;75;1961;-59
2021/12/05 01:18:30;;;;;;;;;;;23.90;50.40;;;;;;1553261;75;792;-58
2021/12/05 01:20:33;;;;;;;;;;;23.80;50.20;;;;;;1561535;75;738;-59
2021/12/05 01:22:40;;;;;;;;;;;23.80;50.30;;;;;;1561941;75;810;-56
2021/12/05 01:27:07;;;;;;;;;;;23.70;50.20;;;;;;1553108;75;1140;-59
2021/12/05 01:31:16;;;;;;;;;;;23.80;50.20;;;;;;1554998;75;872;-55
2021/12/05 01:35:48;;;;;;;;;;;23.70;50.20;;;;;;1553460;75;1903;-57
2021/12/05 01:42:29;;;;;;;;;;;23.70;50.10;;;;;;1549530;75;860;-58
2021/12/05 01:47:00;;;;;;;;;;;23.70;50.20;;;;;;1548956;75;1738;-55
2021/12/05 01:51:19;;;;;;;;;;;23.70;50.20;;;;;;1539557;75;1631;-58
2021/12/05 01:53:21;;;;;;;;;;;23.70;50.30;;;;;;1545712;75;1179;-54
2021/12/05 02:15:38;;;;;;;;;;;23.70;50.20;;;;;;1526974;75;1720;-58
2021/12/05 02:33:44;;;;;;;;;;;23.80;50.20;;;;;;1553284;76;953;-58
2021/12/05 02:40:25;;;;;;;;;;;23.70;50.20;;;;;;1563180;75;825;-56
2021/12/05 02:42:16;;;;;;;;;;;23.70;50.20;;;;;;1576280;75;1586;-58
2021/12/05 02:46:25;;;;;;;;;;;23.70;50.20;;;;;;1576871;75;1163;-59
2021/12/05 02:48:29;;;;;;;;;;;23.70;50.10;;;;;;1576974;75;776;-58
2021/12/05 02:50:31;;;;;;;;;;;23.80;50.20;;;;;;1576501;75;1638;-57
2021/12/05 02:52:34;;;;;;;;;;;23.80;50.20;;;;;;1582810;74;769;-58
2021/12/05 02:54:39;;;;;;;;;;;23.70;50.20;;;;;;1564351;74;949;-59
2021/12/05 02:56:44;;;;;;;;;;;23.70;50.20;;;;;;1566698;74;1921;-57
2021/12/05 02:58:58;;;;;;;;;;;23.80;50.10;;;;;;1570751;74;1668;-58
2021/12/05 03:01:06;;;;;;;;;;;23.70;50.10;;;;;;1561047;76;1636;-59
2021/12/05 03:02:53;;;;;;;;;;;23.80;50.10;;;;;;1529773;75;1724;-59
2021/12/05 03:04:58;;;;;;;;;;;23.70;50.00;;;;;;1531947;77;685;-56
2021/12/05 03:07:03;;;;;;;;;;;23.80;50.00;;;;;;1546912;77;1690;-58
2021/12/05 03:09:04;;;;;;;;;;;23.70;50.00;;;;;;1546470;77;1562;-57
2021/12/05 03:11:06;;;;;;;;;;;23.70;50.00;;;;;;1546831;77;1797;-58
2021/12/05 03:13:08;;;;;;;;;;;23.70;50.00;;;;;;1539866;77;759;-58
2021/12/05 03:15:11;;;;;;;;;;;23.70;49.90;;;;;;1547146;77;652;-57
2021/12/05 03:17:12;;;;;;;;;;;23.80;50.00;;;;;;1546919;77;1903;-58
2021/12/05 03:19:14;;;;;;;;;;;23.70;50.00;;;;;;1547202;77;758;-58
2021/12/05 03:21:16;;;;;;;;;;;23.70;50.00;;;;;;1547072;77;729;-55
2021/12/05 03:23:18;;;;;;;;;;;23.80;49.90;;;;;;1546714;77;764;-55
2021/12/05 03:25:20;;;;;;;;;;;23.80;50.00;;;;;;1546696;77;758;-59
2021/12/05 03:27:22;;;;;;;;;;;23.80;50.00;;;;;;1546987;77;1137;-58
2021/12/05 03:29:24;;;;;;;;;;;23.70;50.00;;;;;;1537725;77;788;-59
2021/12/05 03:31:28;;;;;;;;;;;23.90;50.10;;;;;;1535500;77;758;-57
2021/12/05 03:33:29;;;;;;;;;;;23.90;50.10;;;;;;1546893;77;726;-58
2021/12/05 03:35:31;;;;;;;;;;;23.90;50.00;;;;;;1547093;77;656;-57
2021/12/05 03:37:33;;;;;;;;;;;23.90;50.00;;;;;;1532275;77;1945;-55
2021/12/05 03:39:35;;;;;;;;;;;23.90;50.00;;;;;;1515571;78;722;-58
2021/12/05 03:41:37;;;;;;;;;;;23.90;50.00;;;;;;1517251;78;838;-58
2021/12/05 03:43:39;;;;;;;;;;;23.90;50.00;;;;;;1516988;78;947;-57
2021/12/05 03:45:42;;;;;;;;;;;23.90;49.90;;;;;;1517149;78;776;-57
2021/12/05 03:47:44;;;;;;;;;;;23.90;49.80;;;;;;1516861;78;1123;-56
2021/12/05 03:49:46;;;;;;;;;;;23.90;49.70;;;;;;1517028;78;795;-59
2021/12/05 03:51:49;;;;;;;;;;;23.90;49.80;;;;;;1516612;78;784;-58
2021/12/05 03:53:51;;;;;;;;;;;24.00;49.70;;;;;;1515343;78;734;-59
2021/12/05 03:55:53;;;;;;;;;;;24.00;49.50;;;;;;1516591;78;1120;-57
2021/12/05 03:57:55;;;;;;;;;;;24.00;49.50;;;;;;1517097;78;1915;-58
2021/12/05 03:59:57;;;;;;;;;;;24.00;49.40;;;;;;1517009;78;760;-56
2021/12/05 04:01:59;;;;;;;;;;;24.00;49.50;;;;;;1515727;78;933;-56
2021/12/05 04:04:01;;;;;;;;;;;24.00;49.40;;;;;;1499502;78;796;-54
2021/12/05 04:06:03;;;;;;;;;;;24.00;49.50;;;;;;1565031;70;220894;-62
2021/12/05 04:08:07;;;;;;;;;;;23.90;49.70;;;;;;1579256;75;659;-65
2021/12/05 04:10:09;;;;;;;;;;;23.80;49.80;;;;;;1579128;75;697;-63
2021/12/05 04:12:11;;;;;;;;;;;23.80;50.00;;;;;;1579322;75;841;-62
2021/12/05 04:14:13;;;;;;;;;;;23.70;50.00;;;;;;1564248;75;680;-63
2021/12/05 04:16:15;;;;;;;;;;;23.70;50.20;;;;;;1551058;75;1935;-62
2021/12/05 04:18:17;;;;;;;;;;;23.70;50.30;;;;;;1551314;77;744;-63
2021/12/05 04:20:19;;;;;;;;;;;23.60;50.30;;;;;;1551183;77;662;-63
2021/12/05 04:22:21;;;;;;;;;;;23.60;50.40;;;;;;1552634;75;752;-63
2021/12/05 04:24:23;;;;;;;;;;;23.60;50.50;;;;;;1553003;75;786;-62
2021/12/05 04:26:25;;;;;;;;;;;23.60;50.50;;;;;;1579367;75;1129;-62
2021/12/05 04:28:27;;;;;;;;;;;23.50;50.60;;;;;;1579419;75;740;-62
2021/12/05 04:30:29;;;;;;;;;;;23.50;50.70;;;;;;1579473;75;756;-63
2021/12/05 04:32:31;;;;;;;;;;;23.50;50.60;;;;;;1572797;75;762;-64
2021/12/05 04:34:33;;;;;;;;;;;23.50;50.70;;;;;;1551376;77;777;-63
2021/12/05 04:36:35;;;;;;;;;;;23.40;50.60;;;;;;1551240;75;1940;-62
2021/12/05 04:38:36;;;;;;;;;;;23.50;50.80;;;;;;1551061;77;793;-63
2021/12/05 04:40:38;;;;;;;;;;;23.50;50.90;;;;;;1552766;75;788;-63
2021/12/05 04:42:40;;;;;;;;;;;23.50;51.00;;;;;;1551008;77;701;-63
2021/12/05 04:44:42;;;;;;;;;;;23.50;50.90;;;;;;1551223;77;784;-63
2021/12/05 04:46:44;;;;;;;;;;;23.50;51.00;;;;;;1551153;75;1113;-63
2021/12/05 04:48:47;;;;;;;;;;;23.50;51.00;;;;;;1551639;75;751;-63
2021/12/05 04:50:49;;;;;;;;;;;23.50;51.00;;;;;;1552673;76;710;-63
2021/12/05 04:52:51;;;;;;;;;;;23.50;50.90;;;;;;1582297;75;760;-66
2021/12/05 04:54:53;;;;;;;;;;;23.50;50.90;;;;;;1576834;74;761;-62
2021/12/05 04:56:55;;;;;;;;;;;23.50;50.90;;;;;;1551136;75;1940;-63
2021/12/05 04:58:57;;;;;;;;;;;23.40;50.80;;;;;;1551159;77;734;-63
2021/12/05 05:00:59;;;;;;;;;;;23.60;50.70;;;;;;1551152;77;595;-62
2021/12/05 05:03:01;;;;;;;;;;;23.60;50.60;;;;;;1565244;75;737;-66
2021/12/05 05:05:02;;;;;;;;;;;23.60;50.70;;;;;;1552745;75;745;-65
2021/12/05 05:07:07;;;;;;;;;;;23.50;50.70;;;;;;1551133;75;1153;-63
2021/12/05 05:09:09;;;;;;;;;;;23.60;50.70;;;;;;1551217;77;671;-64
2021/12/05 05:11:11;;;;;;;;;;;23.50;50.80;;;;;;1551106;77;862;-62
2021/12/05 05:13:13;;;;;;;;;;;23.50;50.80;;;;;;1568000;74;768;-62
2021/12/05 05:15:19;;;;;;;;;;;23.50;50.70;;;;;;1551118;77;799;-63
2021/12/05 05:17:19;;;;;;;;;;;23.50;50.80;;;;;;1551032;75;1943;-62
2021/12/05 05:19:27;;;;;;;;;;;23.50;50.90;;;;;;1551169;77;700;-59
2021/12/05 05:23:45;;;;;;;;;;;23.60;50.60;;;;;;1579385;75;802;-61
2021/12/05 05:45:58;;;;;;;;;;;24.10;49.60;;;;;;1551240;77;1645;-64
2021/12/05 05:48:13;;;;;;;;;;;24.10;49.50;;;;;;1550747;77;1463;-64
2021/12/05 05:50:01;;;;;;;;;;;24.00;49.40;;;;;;1549960;77;1427;-66
2021/12/05 05:52:03;;;;;;;;;;;24.10;49.60;;;;;;1569790;73;617;-63
2021/12/05 05:54:05;;;;;;;;;;;24.10;49.60;;;;;;1582204;75;621;-63
2021/12/05 05:56:12;;;;;;;;;;;24.00;49.40;;;;;;1578334;75;1108;-61
2021/12/05 05:58:14;;;;;;;;;;;24.00;49.50;;;;;;1579359;74;1902;-63
2021/12/05 06:00:19;;;;;;;;;;;24.00;49.50;;;;;;1579332;74;1679;-63
2021/12/05 06:04:39;;;;;;;;;;;23.90;49.60;;;;;;1605853;73;1666;-64
2021/12/05 06:06:41;;;;;;;;;;;23.90;49.70;;;;;;1551187;75;1149;-63
2021/12/05 06:08:43;;;;;;;;;;;23.90;49.70;;;;;;1551355;76;741;-60
2021/12/05 06:10:45;;;;;;;;;;;23.90;49.90;;;;;;1551221;77;743;-64
2021/12/05 06:12:47;;;;;;;;;;;23.90;49.80;;;;;;1551202;77;710;-62
2021/12/05 06:14:49;;;;;;;;;;;23.90;49.70;;;;;;1552714;75;732;-62
2021/12/05 06:16:51;;;;;;;;;;;23.80;49.70;;;;;;1551163;75;1944;-63
2021/12/05 06:18:53;;;;;;;;;;;23.90;49.70;;;;;;1577321;75;768;-61
2021/12/05 06:20:55;;;;;;;;;;;23.90;49.80;;;;;;1578290;75;740;-62
2021/12/05 06:22:57;;;;;;;;;;;23.80;49.70;;;;;;1579383;75;748;-62
2021/12/05 06:25:00;;;;;;;;;;;23.90;49.80;;;;;;1569552;75;734;-61
2021/12/05 06:27:02;;;;;;;;;;;23.80;49.80;;;;;;1551103;75;1085;-62
2021/12/05 06:29:13;;;;;;;;;;;23.90;49.90;;;;;;1551221;77;761;-65
2021/12/05 06:39:22;;;;;;;;;;;23.90;49.70;;;;;;1579273;75;1878;-61
2021/12/05 06:40:37;;;;;;;;;;;24.00;49.40;;;;;;1575178;75;1441;-62
2021/12/05 06:47:07;;;;;;;;;;;24.10;49.30;;;;;;1551246;75;1621;-62
2021/12/05 06:49:09;;;;;;;;;;;24.10;49.20;;;;;;1551177;77;662;-65
2021/12/05 06:51:11;;;;;;;;;;;24.10;49.30;;;;;;1559286;75;724;-61
2021/12/05 06:53:13;;;;;;;;;;;24.10;49.30;;;;;;1579180;75;756;-61
2021/12/05 06:55:16;;;;;;;;;;;24.10;49.20;;;;;;1576593;74;746;-61
2021/12/05 06:57:17;;;;;;;;;;;24.10;49.20;;;;;;1581736;74;1956;-63
2021/12/05 06:59:19;;;;;;;;;;;24.10;49.20;;;;;;1588596;74;787;-64
2021/12/05 07:01:21;;;;;;;;;;;24.10;49.20;;;;;;1581619;74;1369;-63
2021/12/05 07:03:23;;;;;;;;;;;24.00;49.10;;;;;;1577795;74;743;-66
2021/12/05 07:05:41;;;;;;;;;;;24.00;49.20;;;;;;1598219;74;704;-65
2021/12/05 07:07:36;;;;;;;;;;;24.10;49.40;;;;;;1580973;74;1533;-65
2021/12/05 07:09:35;;;;;;;;;;;24.00;49.20;;;;;;1580168;74;1530;-66
2021/12/05 07:11:51;;;;;;;;;;;24.00;49.40;;;;;;1576046;74;718;-66
2021/12/05 07:14:12;;;;;;;;;;;24.00;49.40;;;;;;1574954;74;1664;-66
2021/12/05 07:20:48;;;;;;;;;;;24.00;49.10;;;;;;1578922;74;724;-65
2021/12/05 07:22:50;;;;;;;;;;;24.10;49.10;;;;;;1580478;74;1700;-66
2021/12/05 07:24:46;;;;;;;;;;;24.20;49.00;;;;;;1582882;74;1651;-65
2021/12/05 07:27:06;;;;;;;;;;;24.30;49.00;;;;;;1582193;74;1579;-65
2021/12/05 07:40:29;;;;;;;;;;;24.20;48.60;;;;;;1583058;74;1651;-67
2021/12/05 07:42:33;;;;;;;;;;;24.30;48.70;;;;;;1586927;74;700;-69
2021/12/05 07:44:34;;;;;;;;;;;24.30;48.70;;;;;;1583630;74;2043;-67
2021/12/05 07:46:36;;;;;;;;;;;24.30;48.70;;;;;;1584897;74;1127;-66
2021/12/05 07:48:41;;;;;;;;;;;24.30;48.60;;;;;;1585927;74;784;-67
2021/12/05 07:50:50;;;;;;;;;;;24.20;48.60;;;;;;1572249;74;1753;-66
2021/12/05 07:52:51;;;;;;;;;;;24.20;48.80;;;;;;1572789;75;1566;-66
2021/12/05 07:54:57;;;;;;;;;;;24.20;48.70;;;;;;1578687;74;1752;-66
2021/12/05 07:59:26;;;;;;;;;;;24.20;48.70;;;;;;1581313;74;1911;-64
2021/12/05 08:15:10;;;;;;;;;;;24.00;49.20;;;;;;1592772;74;683;-62
2021/12/05 08:17:16;;;;;;;;;;;24.00;49.40;;;;;;1593707;74;1771;-63
2021/12/05 08:19:14;;;;;;;;;;;24.00;49.50;;;;;;1610017;74;1914;-63
2021/12/05 08:21:16;;;;;;;;;;;24.10;49.20;;;;;;1610175;74;774;-65
2021/12/05 08:23:18;;;;;;;;;;;24.20;48.90;;;;;;1552631;75;808;-63
2021/12/05 08:25:22;;;;;;;;;;;24.20;48.90;;;;;;1552697;75;659;-62
2021/12/05 08:27:24;;;;;;;;;;;24.20;48.80;;;;;;1551113;75;1674;-63
2021/12/05 08:29:34;;;;;;;;;;;24.20;48.70;;;;;;1556497;74;735;-64
2021/12/05 08:41:03;;;;;;;;;;;24.10;48.60;;;;;;1581563;74;1631;-63
2021/12/05 09:20:35;;;;;;;;;;;24.00;48.70;;;;;;1543678;77;1627;-62
2021/12/05 09:26:34;;;;;;;;;;;24.00;47.80;;;;;;1544993;76;1135;-61
2021/12/05 09:30:54;;;;;;;;;;;23.90;47.20;;;;;;1549539;76;866;-63
2021/12/05 10:02:46;;;;;;;;;;;23.30;41.80;;;;;;1551298;76;925;-63
2021/12/05 10:16:22;;;;;;;;;;;23.10;40.20;;;;;;1483422;78;885;-65
2021/12/05 10:26:03;;;;;;;;;;;23.10;40.20;;;;;;1473880;80;1101;-63
2021/12/05 10:34:13;;;;;;;;;;;23.00;40.10;;;;;;1476037;80;1672;-64
2021/12/05 10:36:25;;;;;;;;;;;23.00;39.30;;;;;;1476018;79;1388;-63
2021/12/05 10:38:26;;;;;;;;;;;22.90;38.30;;;;;;1477459;80;1935;-64
2021/12/05 10:40:43;;;;;;;;;;;22.90;38.70;;;;;;1475729;80;708;-64
2021/12/05 10:42:46;;;;;;;;;;;22.90;38.50;;;;;;1477605;79;1145;-66
2021/12/05 10:44:48;;;;;;;;;;;22.90;39.40;;;;;;1477944;80;801;-66
2021/12/05 10:46:51;;;;;;;;;;;22.90;39.40;;;;;;1478187;79;1127;-67
2021/12/05 10:48:54;;;;;;;;;;;22.80;39.70;;;;;;1478311;80;733;-66
2021/12/05 10:50:57;;;;;;;;;;;22.80;40.50;;;;;;1478326;80;714;-66
2021/12/05 10:53:17;;;;;;;;;;;22.80;40.70;;;;;;1476594;80;1064;-67
2021/12/05 10:55:29;;;;;;;;;;;22.80;41.10;;;;;;1477207;80;736;-65
2021/12/05 10:57:40;;;;;;;;;;;22.70;41.50;;;;;;1476062;79;1141;-67
2021/12/05 10:59:38;;;;;;;;;;;22.80;41.90;;;;;;1477126;80;1924;-68
2021/12/05 11:01:41;;;;;;;;;;;22.80;42.20;;;;;;1477813;80;1301;-68
2021/12/05 11:03:44;;;;;;;;;;;22.80;42.40;;;;;;1478172;79;717;-68
2021/12/05 11:05:46;;;;;;;;;;;22.80;42.70;;;;;;1478277;80;774;-67
2021/12/05 11:07:47;;;;;;;;;;;22.70;42.90;;;;;;1484037;78;1146;-67
2021/12/05 11:09:52;;;;;;;;;;;22.80;43.10;;;;;;1494621;78;685;-69
2021/12/05 11:11:56;;;;;;;;;;;22.70;43.20;;;;;;1490186;78;767;-67
2021/12/05 11:13:58;;;;;;;;;;;22.80;43.40;;;;;;1490304;78;684;-68
2021/12/05 11:16:00;;;;;;;;;;;22.80;43.60;;;;;;1490290;78;728;-68
2021/12/05 11:18:02;;;;;;;;;;;22.80;43.70;;;;;;1492779;78;1215;-67
2021/12/05 11:20:09;;;;;;;;;;;22.80;43.80;;;;;;1492716;78;1938;-65
2021/12/05 11:22:16;;;;;;;;;;;22.80;43.90;;;;;;1494054;78;716;-67
2021/12/05 11:24:17;;;;;;;;;;;22.80;44.00;;;;;;1490516;78;1668;-65
2021/12/05 11:26:19;;;;;;;;;;;22.80;44.10;;;;;;1492621;78;1088;-67
2021/12/05 11:28:24;;;;;;;;;;;22.80;44.20;;;;;;1495393;77;770;-67
2021/12/05 11:30:32;;;;;;;;;;;22.80;44.30;;;;;;1489024;78;1717;-67
2021/12/05 11:32:38;;;;;;;;;;;22.90;44.50;;;;;;1490700;78;700;-69
2021/12/05 11:34:39;;;;;;;;;;;22.90;44.50;;;;;;1493108;78;1905;-67
2021/12/05 11:36:41;;;;;;;;;;;22.90;44.50;;;;;;1493101;78;1192;-67
2021/12/05 11:38:43;;;;;;;;;;;22.90;44.50;;;;;;1493213;78;1930;-68
2021/12/05 11:40:58;;;;;;;;;;;22.90;44.50;;;;;;1490265;78;736;-66
2021/12/05 11:43:02;;;;;;;;;;;23.00;44.40;;;;;;1490080;78;1677;-68
2021/12/05 11:45:04;;;;;;;;;;;23.00;44.30;;;;;;1490087;78;1763;-68
2021/12/05 11:47:14;;;;;;;;;;;23.10;44.40;;;;;;1493374;78;1166;-68
2021/12/05 11:49:20;;;;;;;;;;;23.10;44.30;;;;;;1487098;78;1067;-66
2021/12/05 11:51:27;;;;;;;;;;;23.20;44.20;;;;;;1506800;78;955;-66
2021/12/05 11:53:42;;;;;;;;;;;23.20;44.20;;;;;;1502007;78;1081;-71
2021/12/05 11:55:44;;;;;;;;;;;23.30;44.10;;;;;;1497589;78;759;-68
2021/12/05 11:57:46;;;;;;;;;;;23.40;43.60;;;;;;1497422;78;1140;-71
2021/12/05 11:59:49;;;;;;;;;;;23.50;43.40;;;;;;1497438;78;1930;-71
2021/12/05 12:01:59;;;;;;;;;;;23.60;43.30;;;;;;1495624;78;681;-69
2021/12/05 12:04:01;;;;;;;;;;;23.60;43.10;;;;;;1490020;78;666;-69
2021/12/05 12:06:02;;;;;;;;;;;23.70;43.10;;;;;;1492285;78;779;-71
2021/12/05 12:08:07;;;;;;;;;;;23.80;42.80;;;;;;1492592;78;1118;-70
2021/12/05 12:10:17;;;;;;;;;;;23.70;42.80;;;;;;1489674;78;1026;-70
2021/12/05 12:12:18;;;;;;;;;;;23.90;42.90;;;;;;1490034;78;717;-68
2021/12/05 12:14:20;;;;;;;;;;;23.80;42.80;;;;;;1491072;78;720;-66
2021/12/05 12:16:22;;;;;;;;;;;23.80;42.80;;;;;;1492582;78;1124;-67
2021/12/05 12:18:28;;;;;;;;;;;23.90;43.00;;;;;;1490945;78;710;-68
2021/12/05 12:20:29;;;;;;;;;;;23.70;43.00;;;;;;1492066;78;1920;-68
2021/12/05 12:22:31;;;;;;;;;;;23.70;43.10;;;;;;1490112;78;693;-66
2021/12/05 12:24:33;;;;;;;;;;;23.60;43.30;;;;;;1490900;78;732;-67
2021/12/05 12:26:35;;;;;;;;;;;23.50;43.60;;;;;;1492683;78;1128;-67
2021/12/05 12:28:37;;;;;;;;;;;23.50;43.90;;;;;;1492536;78;676;-68
2021/12/05 12:30:40;;;;;;;;;;;23.40;44.20;;;;;;1493692;78;705;-67
2021/12/05 12:32:43;;;;;;;;;;;23.30;44.40;;;;;;1492325;78;719;-66
2021/12/05 12:34:45;;;;;;;;;;;23.30;44.80;;;;;;1490838;78;797;-68
2021/12/05 12:36:50;;;;;;;;;;;23.30;45.10;;;;;;1490412;78;1088;-68
2021/12/05 12:38:52;;;;;;;;;;;23.30;45.40;;;;;;1492412;78;1934;-68
2021/12/05 12:40:56;;;;;;;;;;;23.30;45.70;;;;;;1492388;78;727;-69
2021/12/05 12:42:58;;;;;;;;;;;23.30;45.80;;;;;;1489166;78;1616;-67
2021/12/05 12:45:00;;;;;;;;;;;23.30;46.00;;;;;;1490440;78;768;-68
2021/12/05 12:47:04;;;;;;;;;;;23.30;46.20;;;;;;1492359;78;1173;-67
2021/12/05 12:49:17;;;;;;;;;;;23.30;46.30;;;;;;1490481;78;719;-68
2021/12/05 12:51:26;;;;;;;;;;;23.20;46.10;;;;;;1491381;78;702;-68
2021/12/05 12:53:29;;;;;;;;;;;23.30;46.20;;;;;;1492542;78;767;-70
2021/12/05 12:55:32;;;;;;;;;;;23.30;46.10;;;;;;1490797;78;699;-68
2021/12/05 12:57:35;;;;;;;;;;;23.40;46.00;;;;;;1494561;78;1153;-70
2021/12/05 12:59:38;;;;;;;;;;;23.40;45.80;;;;;;1459670;80;1924;-69
2021/12/05 13:04:28;;;;;;;;;;;23.50;45.60;;;;;;1480884;78;864;-67
2021/12/05 13:10:48;;;;;;;;;;;23.80;45.00;;;;;;1486544;78;1680;-66
2021/12/05 13:12:51;;;;;;;;;;;23.70;44.90;;;;;;1490891;78;810;-67
2021/12/05 13:15:03;;;;;;;;;;;23.90;44.90;;;;;;1494206;78;682;-68
2021/12/05 13:17:05;;;;;;;;;;;23.90;44.80;;;;;;1488386;78;1141;-67
2021/12/05 13:19:12;;;;;;;;;;;23.90;44.70;;;;;;1482388;78;1949;-68
2021/12/05 13:21:16;;;;;;;;;;;23.80;44.70;;;;;;1482114;78;677;-68
2021/12/05 13:23:30;;;;;;;;;;;23.80;44.60;;;;;;1482254;78;718;-64
2021/12/05 13:25:33;;;;;;;;;;;23.90;44.60;;;;;;1495672;78;1624;-67
2021/12/05 13:27:37;;;;;;;;;;;23.90;44.50;;;;;;1512980;77;1133;-66
2021/12/05 13:29:40;;;;;;;;;;;24.00;44.40;;;;;;1510752;77;1275;-67
2021/12/05 13:32:00;;;;;;;;;;;24.00;44.40;;;;;;1484314;77;1814;-68
2021/12/05 13:34:20;;;;;;;;;;;24.00;44.30;;;;;;1489701;78;692;-67
2021/12/05 13:36:33;;;;;;;;;;;24.00;44.20;;;;;;1488796;77;1149;-67
2021/12/05 13:38:36;;;;;;;;;;;24.00;44.20;;;;;;1497079;78;626;-68
2021/12/05 13:40:40;;;;;;;;;;;24.00;44.20;;;;;;1491370;78;1930;-69
2021/12/05 13:42:44;;;;;;;;;;;24.00;44.20;;;;;;1497858;78;727;-67
2021/12/05 13:45:04;;;;;;;;;;;24.10;44.20;;;;;;1488831;78;2015;-66
2021/12/05 13:47:16;;;;;;;;;;;24.00;44.00;;;;;;1512306;78;1212;-68
2021/12/05 13:49:32;;;;;;;;;;;24.10;44.20;;;;;;1486540;78;696;-68
2021/12/05 13:51:34;;;;;;;;;;;24.10;44.10;;;;;;1486187;78;1789;-66
2021/12/05 13:53:36;;;;;;;;;;;24.10;44.20;;;;;;1491983;78;683;-67
2021/12/05 13:56:02;;;;;;;;;;;24.10;44.20;;;;;;1490005;78;738;-66
2021/12/05 13:58:09;;;;;;;;;;;24.00;44.00;;;;;;1477119;78;1110;-67
2021/12/05 14:00:13;;;;;;;;;;;24.10;44.10;;;;;;1409906;82;1940;-66
2021/12/05 14:02:17;;;;;;;;;;;24.00;44.00;;;;;;1463526;78;860;-66
2021/12/05 14:04:21;;;;;;;;;;;24.10;44.10;;;;;;1485293;78;1955;-67
2021/12/05 14:06:41;;;;;;;;;;;24.00;44.00;;;;;;1488246;78;1141;-67
2021/12/05 14:08:43;;;;;;;;;;;24.10;44.10;;;;;;1483489;78;800;-66
2021/12/05 14:10:45;;;;;;;;;;;24.00;44.00;;;;;;1485344;78;700;-68
2021/12/05 14:12:47;;;;;;;;;;;24.00;43.90;;;;;;1482437;78;817;-66
2021/12/05 14:14:50;;;;;;;;;;;24.00;44.00;;;;;;1487283;78;701;-68
2021/12/05 14:16:52;;;;;;;;;;;24.10;44.20;;;;;;1487577;78;1731;-66
2021/12/05 14:18:54;;;;;;;;;;;24.10;44.20;;;;;;1483862;78;733;-67
2021/12/05 14:20:56;;;;;;;;;;;24.00;44.20;;;;;;1481953;77;1946;-67
2021/12/05 14:23:04;;;;;;;;;;;24.00;44.10;;;;;;1457276;80;1159;-66
2021/12/05 14:25:04;;;;;;;;;;;24.00;44.20;;;;;;1492508;76;1559;-67
2021/12/05 14:27:06;;;;;;;;;;;24.00;44.20;;;;;;1507568;78;1133;-67
2021/12/05 14:29:16;;;;;;;;;;;24.00;44.10;;;;;;1482207;78;696;-68
2021/12/05 14:31:25;;;;;;;;;;;24.00;44.10;;;;;;1482209;78;1656;-67
2021/12/05 14:33:27;;;;;;;;;;;24.00;44.10;;;;;;1481935;78;1046;-66
2021/12/05 14:35:30;;;;;;;;;;;24.00;44.10;;;;;;1485730;78;705;-67
2021/12/05 14:37:33;;;;;;;;;;;24.10;44.20;;;;;;1490419;78;1136;-66
2021/12/05 14:39:36;;;;;;;;;;;24.00;44.10;;;;;;1494724;78;1944;-66
2021/12/05 14:41:38;;;;;;;;;;;24.10;44.20;;;;;;1485720;78;659;-69
2021/12/05 14:43:40;;;;;;;;;;;24.10;44.30;;;;;;1482167;78;717;-70
2021/12/05 14:45:42;;;;;;;;;;;24.00;44.10;;;;;;1482307;78;727;-67
2021/12/05 14:47:44;;;;;;;;;;;24.00;44.10;;;;;;1482491;78;1174;-68
2021/12/05 14:49:53;;;;;;;;;;;24.10;44.20;;;;;;1482224;78;777;-67
2021/12/05 14:51:55;;;;;;;;;;;24.00;44.00;;;;;;1486098;77;1172;-67
2021/12/05 14:53:57;;;;;;;;;;;24.00;44.00;;;;;;1511276;78;683;-67
2021/12/05 14:55:59;;;;;;;;;;;24.10;44.20;;;;;;1485000;78;726;-69
2021/12/05 14:58:02;;;;;;;;;;;24.10;44.20;;;;;;1482293;78;1110;-68
2021/12/05 15:00:09;;;;;;;;;;;24.10;44.20;;;;;;1482346;78;1936;-68
2021/12/05 15:02:10;;;;;;;;;;;24.00;44.10;;;;;;1480416;78;670;-68
2021/12/05 15:04:12;;;;;;;;;;;24.00;44.10;;;;;;1481760;78;800;-69
2021/12/05 15:06:14;;;;;;;;;;;24.00;44.20;;;;;;1492721;78;1164;-68
2021/12/05 15:08:17;;;;;;;;;;;24.00;44.30;;;;;;1482518;78;769;-66
2021/12/05 15:10:20;;;;;;;;;;;24.00;44.30;;;;;;1482211;78;786;-67
2021/12/05 15:12:23;;;;;;;;;;;24.00;44.30;;;;;;1493355;78;788;-70
2021/12/05 15:14:25;;;;;;;;;;;24.00;44.30;;;;;;1482176;78;781;-67
2021/12/05 15:16:27;;;;;;;;;;;23.90;44.50;;;;;;1482444;78;1171;-66
2021/12/05 15:18:32;;;;;;;;;;;23.90;44.50;;;;;;1482166;78;781;-67
2021/12/05 15:20:33;;;;;;;;;;;23.80;44.60;;;;;;1482238;78;1932;-69
2021/12/05 15:22:35;;;;;;;;;;;23.90;44.80;;;;;;1484226;78;795;-67
2021/12/05 15:24:37;;;;;;;;;;;23.80;44.80;;;;;;1485009;78;690;-68
2021/12/05 15:26:39;;;;;;;;;;;23.90;45.10;;;;;;1499557;78;1141;-70
2021/12/05 15:28:41;;;;;;;;;;;23.80;45.00;;;;;;1498448;77;708;-67
2021/12/05 15:30:44;;;;;;;;;;;23.70;45.00;;;;;;1501594;78;703;-67
2021/12/05 15:32:46;;;;;;;;;;;23.90;45.10;;;;;;1511087;78;791;-71
2021/12/05 15:34:51;;;;;;;;;;;24.00;44.60;;;;;;1482297;78;665;-66
2021/12/05 15:36:53;;;;;;;;;;;23.90;44.20;;;;;;1480159;78;1088;-66
2021/12/05 15:38:55;;;;;;;;;;;23.90;44.10;;;;;;1506802;78;695;-65
2021/12/05 15:41:05;;;;;;;;;;;23.90;44.00;;;;;;1501720;77;1949;-66
2021/12/05 15:43:08;;;;;;;;;;;24.00;43.90;;;;;;1489894;78;773;-68
2021/12/05 15:45:10;;;;;;;;;;;24.00;43.90;;;;;;1512798;77;733;-67
2021/12/05 15:47:14;;;;;;;;;;;24.00;43.80;;;;;;1512975;78;1185;-68
2021/12/05 15:49:15;;;;;;;;;;;24.00;43.70;;;;;;1509290;78;733;-67
2021/12/05 15:51:17;;;;;;;;;;;24.00;43.70;;;;;;1483436;78;708;-67
2021/12/05 15:53:19;;;;;;;;;;;24.00;43.80;;;;;;1488109;78;699;-67
2021/12/05 15:55:23;;;;;;;;;;;24.00;43.70;;;;;;1483062;78;706;-67
2021/12/05 15:57:30;;;;;;;;;;;24.00;43.70;;;;;;1482376;78;1163;-70
2021/12/05 15:59:36;;;;;;;;;;;24.00;43.70;;;;;;1484086;78;1110;-67
2021/12/05 16:01:36;;;;;;;;;;;24.00;43.70;;;;;;1490471;78;1937;-68
2021/12/05 16:03:39;;;;;;;;;;;24.00;43.70;;;;;;1479847;78;706;-69
2021/12/05 16:05:41;;;;;;;;;;;24.00;43.80;;;;;;1492971;78;704;-69
2021/12/05 16:07:43;;;;;;;;;;;24.00;43.80;;;;;;1524203;74;3021;-69
2021/12/05 16:09:46;;;;;;;;;;;24.00;43.90;;;;;;1551085;75;820;-69
2021/12/05 16:11:51;;;;;;;;;;;23.90;43.90;;;;;;1561231;75;718;-67
2021/12/05 16:13:53;;;;;;;;;;;24.00;43.90;;;;;;1562887;75;763;-64
2021/12/05 16:15:55;;;;;;;;;;;23.90;44.00;;;;;;1562260;75;781;-66
2021/12/05 16:17:58;;;;;;;;;;;23.90;44.10;;;;;;1551525;75;1188;-67
2021/12/05 16:20:13;;;;;;;;;;;23.90;44.20;;;;;;1555857;76;1947;-66
2021/12/05 16:22:15;;;;;;;;;;;23.90;44.20;;;;;;1548161;75;722;-66
2021/12/05 16:24:18;;;;;;;;;;;23.90;44.20;;;;;;1555287;75;782;-64
2021/12/05 16:26:21;;;;;;;;;;;23.90;44.20;;;;;;1548728;75;768;-68
2021/12/05 16:28:28;;;;;;;;;;;24.00;44.20;;;;;;1548573;75;1684;-67
2021/12/05 16:30:32;;;;;;;;;;;23.90;44.20;;;;;;1556743;75;1009;-68
2021/12/05 16:32:35;;;;;;;;;;;23.90;44.20;;;;;;1553064;75;676;-67
2021/12/05 16:34:42;;;;;;;;;;;23.90;44.20;;;;;;1561957;75;1317;-67
2021/12/05 16:36:42;;;;;;;;;;;23.90;44.20;;;;;;1560142;75;1628;-67
2021/12/05 16:38:44;;;;;;;;;;;23.90;44.10;;;;;;1567700;76;769;-67
2021/12/05 16:40:51;;;;;;;;;;;23.90;44.20;;;;;;1561214;76;1938;-66
2021/12/05 16:43:06;;;;;;;;;;;23.90;44.20;;;;;;1558114;75;1849;-67
2021/12/05 16:45:09;;;;;;;;;;;23.90;44.20;;;;;;1562911;75;1395;-68
2021/12/05 16:47:12;;;;;;;;;;;23.90;44.10;;;;;;1558725;75;1158;-68
2021/12/05 16:49:15;;;;;;;;;;;23.90;44.10;;;;;;1555186;75;733;-67
2021/12/05 16:51:21;;;;;;;;;;;23.90;44.10;;;;;;1538555;75;735;-69
2021/12/05 16:53:27;;;;;;;;;;;23.90;44.00;;;;;;1545829;75;1189;-65
2021/12/05 16:55:30;;;;;;;;;;;23.90;44.00;;;;;;1558416;75;1788;-68
2021/12/05 16:57:40;;;;;;;;;;;23.90;43.90;;;;;;1558424;75;1158;-66
2021/12/05 16:59:40;;;;;;;;;;;24.00;43.80;;;;;;1554550;76;1641;-66
2021/12/05 17:01:42;;;;;;;;;;;24.00;43.70;;;;;;1549518;75;1903;-64
2021/12/05 17:03:45;;;;;;;;;;;24.00;43.70;;;;;;1551757;75;874;-65
2021/12/05 17:05:48;;;;;;;;;;;24.00;43.60;;;;;;1548129;75;779;-63
2021/12/05 17:07:57;;;;;;;;;;;24.00;43.60;;;;;;1566536;75;1155;-64
2021/12/05 17:09:55;;;;;;;;;;;24.00;43.60;;;;;;1557497;75;1619;-64
2021/12/05 17:11:57;;;;;;;;;;;24.00;43.60;;;;;;1557713;76;729;-66